Time;durP1;ratioP1;P1;durP2;ratioP2;P2;SDS_P1;SDS_P2;PMS_P1;PMS_P2;Temp;Humidity;BMP_temperature;BMP_pressure;BME280_temperature;BME280_humidity;BME280_pressure;Samples;Min_cycle;Max_cycle;Signal;HPM_P1;HPM_P2
2022/04/24 00:02:22;;;;;;;2.47;0.93;;;;;;;-144.47;100.00;61586.06;6182552;23;20009;-77
2022/04/24 00:04:47;;;;;;;2.95;0.93;;;;;;;-144.47;100.00;61586.06;6181759;23;20369;-79
2022/04/24 00:07:12;;;;;;;1.65;0.90;;;;;;;-144.47;100.00;61586.06;6182452;23;20436;-79
2022/04/24 00:09:38;;;;;;;2.55;0.90;;;;;;;-144.47;100.00;61586.06;6182047;23;20008;-77
2022/04/24 00:12:06;;;;;;;2.97;1.00;;;;;;;-144.47;100.00;61586.06;6182488;23;20371;-77
2022/04/24 00:14:32;;;;;;;3.20;1.13;;;;;;;-144.47;100.00;61586.06;6181806;23;20029;-77
2022/04/24 00:16:58;;;;;;;4.15;1.13;;;;;;;-144.47;100.00;61586.06;6182265;23;20009;-78
2022/04/24 00:19:24;;;;;;;3.08;0.90;;;;;;;-144.47;100.00;61586.06;6181621;23;20012;-78
2022/04/24 00:21:50;;;;;;;2.15;0.80;;;;;;;-144.47;100.00;61586.06;6182121;23;20100;-77
2022/04/24 00:24:16;;;;;;;4.03;1.17;;;;;;;-144.47;100.00;61586.06;6182449;23;20032;-77
2022/04/24 00:26:41;;;;;;;6.10;1.52;;;;;;;-144.47;100.00;61586.06;6182225;23;20012;-79
2022/04/24 00:29:07;;;;;;;3.20;1.08;;;;;;;-144.47;100.00;61586.06;6156254;23;20032;-77
2022/04/24 00:31:33;;;;;;;1.13;0.93;;;;;;;-144.47;100.00;61586.06;6182026;23;20009;-77
2022/04/24 00:33:58;;;;;;;2.60;1.23;;;;;;;-144.47;100.00;61586.06;6182286;23;20015;-78
2022/04/24 00:36:24;;;;;;;1.65;0.70;;;;;;;-144.47;100.00;61586.06;6182577;23;20036;-77
2022/04/24 00:38:50;;;;;;;1.92;0.90;;;;;;;-144.47;100.00;61586.06;6182037;23;20028;-78
2022/04/24 00:41:15;;;;;;;3.10;0.80;;;;;;;-144.47;100.00;61586.06;6182434;23;20009;-77
2022/04/24 00:43:41;;;;;;;1.77;0.93;;;;;;;-144.47;100.00;61586.06;6181903;23;20020;-78
2022/04/24 00:46:28;;;;;;;2.80;0.90;;;;;;;-144.47;100.00;61586.06;6182329;23;20032;-79
2022/04/24 00:48:53;;;;;;;3.38;1.02;;;;;;;-144.47;100.00;61586.06;6182668;23;20036;-77
2022/04/24 00:51:19;;;;;;;1.95;0.85;;;;;;;-144.47;100.00;61586.06;6182309;23;20040;-78
2022/04/24 00:53:44;;;;;;;4.65;0.90;;;;;;;-144.47;100.00;61586.06;6196503;23;20017;-77
2022/04/24 00:56:10;;;;;;;4.80;1.33;;;;;;;-144.47;100.00;61586.06;6193667;23;20052;-78
2022/04/24 00:58:36;;;;;;;5.63;1.10;;;;;;;-144.47;100.00;61586.06;6178633;23;20021;-76
2022/04/24 01:01:01;;;;;;;3.35;1.40;;;;;;;-144.47;100.00;61586.06;6182446;23;20070;-79
2022/04/24 01:03:28;;;;;;;3.45;1.38;;;;;;;-144.47;100.00;61586.06;6192634;23;20016;-76
2022/04/24 01:05:55;;;;;;;1.52;1.15;;;;;;;-144.47;100.00;61586.06;6188834;23;20055;-78
2022/04/24 01:08:20;;;;;;;3.20;1.73;;;;;;;-144.47;100.00;61586.06;6182763;23;20370;-79
2022/04/24 01:10:46;;;;;;;3.00;1.15;;;;;;;-144.47;100.00;61586.06;6182370;23;20048;-78
2022/04/24 01:13:11;;;;;;;2.63;0.77;;;;;;;-144.47;100.00;61586.06;6181703;23;20082;-79
2022/04/24 01:15:37;;;;;;;2.22;1.23;;;;;;;-144.47;100.00;61586.06;6182178;23;20009;-77
2022/04/24 01:18:02;;;;;;;3.55;1.20;;;;;;;-144.47;100.00;61586.06;6182379;23;20013;-77
2022/04/24 01:20:28;;;;;;;3.55;1.38;;;;;;;-144.47;100.00;61586.06;6181729;23;20013;-77
2022/04/24 01:22:55;;;;;;;2.00;1.00;;;;;;;-144.47;100.00;61586.06;6182234;23;20288;-77
2022/04/24 01:25:20;;;;;;;2.10;1.15;;;;;;;-144.47;100.00;61586.06;6182328;23;20076;-76
2022/04/24 01:27:46;;;;;;;3.17;1.30;;;;;;;-144.47;100.00;61586.06;6181657;23;20143;-79
2022/04/24 01:30:11;;;;;;;1.05;0.88;;;;;;;-144.47;100.00;61586.06;6182273;23;20017;-78
2022/04/24 01:32:40;;;;;;;0.90;0.90;;;;;;;-144.47;100.00;61586.06;6182235;23;20001;-78
2022/04/24 01:35:07;;;;;;;1.02;1.00;;;;;;;-144.47;100.00;61586.06;6181856;23;20012;-78
2022/04/24 01:37:33;;;;;;;2.83;1.20;;;;;;;-144.47;100.00;61586.06;6180117;23;20027;-78
2022/04/24 01:39:58;;;;;;;4.85;1.40;;;;;;;-144.47;100.00;61586.06;6181357;23;20017;-78
2022/04/24 01:42:24;;;;;;;3.13;1.30;;;;;;;-144.47;100.00;61586.06;6181390;23;20025;-78
2022/04/24 01:44:50;;;;;;;4.00;1.15;;;;;;;-144.47;100.00;61586.06;6181208;23;20013;-78
2022/04/24 01:47:16;;;;;;;2.40;1.20;;;;;;;-144.47;100.00;61586.06;6181140;23;20068;-78
2022/04/24 01:49:41;;;;;;;5.18;1.77;;;;;;;-144.47;100.00;61586.06;6182288;23;20362;-78
2022/04/24 01:52:07;;;;;;;2.83;0.82;;;;;;;-144.47;100.00;61586.06;6182981;23;20009;-77
2022/04/24 01:54:33;;;;;;;2.60;1.15;;;;;;;-144.47;100.00;61586.06;6182541;23;20139;-78
2022/04/24 01:56:58;;;;;;;3.28;1.20;;;;;;;-144.47;100.00;61586.06;6182632;23;20016;-78
2022/04/24 01:59:25;;;;;;;2.90;1.17;;;;;;;-144.47;100.00;61586.06;6156654;23;20017;-78
2022/04/24 02:01:51;;;;;;;2.42;1.10;;;;;;;-144.47;100.00;61586.06;6183294;23;20433;-78
2022/04/24 02:04:23;;;;;;;2.72;1.25;;;;;;;-144.47;100.00;61586.06;6184027;23;20001;-78
2022/04/24 02:06:50;;;;;;;2.58;1.30;;;;;;;-144.47;100.00;61586.06;6183006;23;20037;-78
2022/04/24 02:09:15;;;;;;;3.17;1.20;;;;;;;-144.47;100.00;61586.06;6157099;23;20016;-78
2022/04/24 02:11:41;;;;;;;2.25;1.00;;;;;;;-144.47;100.00;61586.06;6156486;23;20334;-78
2022/04/24 02:14:07;;;;;;;3.25;1.23;;;;;;;-144.47;100.00;61586.06;6184113;23;20004;-78
2022/04/24 02:16:32;;;;;;;3.08;1.17;;;;;;;-144.47;100.00;61586.06;6183629;23;20390;-78
2022/04/24 02:18:57;;;;;;;1.92;1.25;;;;;;;-144.47;100.00;61586.06;6183849;23;20017;-77
2022/04/24 02:21:23;;;;;;;3.20;1.40;;;;;;;-144.47;100.00;61586.06;6157490;23;20017;-79
2022/04/24 02:23:49;;;;;;;3.80;1.50;;;;;;;-144.47;100.00;61586.06;6157031;23;20092;-77
2022/04/24 02:26:15;;;;;;;1.40;1.17;;;;;;;-144.47;100.00;61586.06;6184045;23;20036;-77
2022/04/24 02:28:40;;;;;;;3.55;1.30;;;;;;;-144.47;100.00;61586.06;6182433;23;20016;-77
2022/04/24 02:31:06;;;;;;;3.05;1.33;;;;;;;-144.47;100.00;61586.06;6183506;23;20009;-78
2022/04/24 02:33:31;;;;;;;2.53;1.48;;;;;;;-144.47;100.00;61586.06;6182660;23;20019;-77
2022/04/24 02:35:58;;;;;;;2.67;1.00;;;;;;;-144.47;100.00;61586.06;6183018;23;20017;-77
2022/04/24 02:38:23;;;;;;;1.45;1.20;;;;;;;-144.47;100.00;61586.06;6184000;23;20435;-78
2022/04/24 02:40:49;;;;;;;2.15;1.58;;;;;;;-144.47;100.00;61586.06;6183195;23;20060;-78
2022/04/24 02:43:14;;;;;;;4.05;1.90;;;;;;;-144.47;100.00;61586.06;6183325;23;20062;-76
2022/04/24 02:45:40;;;;;;;1.83;1.35;;;;;;;-144.47;100.00;61586.06;6182974;23;20020;-78
2022/04/24 02:48:06;;;;;;;1.73;1.30;;;;;;;-144.47;100.00;61586.06;6182209;23;20063;-78
2022/04/24 02:50:31;;;;;;;3.83;1.50;;;;;;;-144.47;100.00;61586.06;6181664;23;20001;-77
2022/04/24 02:52:57;;;;;;;1.27;1.10;;;;;;;-144.47;100.00;61586.06;6181777;23;20016;-77
2022/04/24 02:55:24;;;;;;;2.33;1.30;;;;;;;-144.47;100.00;61586.06;6181754;23;20005;-77
2022/04/24 02:57:50;;;;;;;2.10;1.60;;;;;;;-144.47;100.00;61586.06;6180542;23;20025;-77
2022/04/24 03:00:19;;;;;;;1.83;1.65;;;;;;;-144.47;100.00;61586.06;6154934;23;20460;-77
2022/04/24 03:02:46;;;;;;;4.43;1.45;;;;;;;-144.47;100.00;61586.06;6181672;23;20059;-77
2022/04/24 03:05:13;;;;;;;2.78;1.13;;;;;;;-144.47;100.00;61586.06;6198389;23;19997;-78
2022/04/24 03:07:39;;;;;;;1.75;1.40;;;;;;;-144.47;100.00;61586.06;6191778;23;20110;-77
2022/04/24 03:10:05;;;;;;;3.30;1.00;;;;;;;-144.47;100.00;61586.06;6181579;23;20009;-77
2022/04/24 03:12:31;;;;;;;1.55;1.20;;;;;;;-144.47;100.00;61586.06;6181196;23;20048;-77
2022/04/24 03:14:57;;;;;;;2.42;1.45;;;;;;;-144.47;100.00;61586.06;6181831;23;20011;-77
2022/04/24 03:17:23;;;;;;;1.75;1.20;;;;;;;-144.47;100.00;61586.06;6181431;23;20020;-77
2022/04/24 03:19:48;;;;;;;3.60;1.50;;;;;;;-144.47;100.00;61586.06;6181566;23;20398;-78
2022/04/24 03:22:13;;;;;;;1.38;0.90;;;;;;;-144.47;100.00;61586.06;6182354;23;20005;-78
2022/04/24 03:24:40;;;;;;;2.40;1.30;;;;;;;-144.47;100.00;61586.06;6181514;23;20017;-78
2022/04/24 03:27:06;;;;;;;1.48;1.23;;;;;;;-144.47;100.00;61586.06;6181799;23;20013;-78
2022/04/24 03:29:31;;;;;;;1.17;1.05;;;;;;;-144.47;100.00;61586.06;6182301;23;20013;-77
2022/04/24 03:31:56;;;;;;;1.65;1.30;;;;;;;-144.47;100.00;61586.06;6156097;23;20040;-78
2022/04/24 03:34:22;;;;;;;1.67;1.42;;;;;;;-144.47;100.00;61586.06;6182363;23;20016;-78
2022/04/24 03:36:47;;;;;;;1.27;1.10;;;;;;;-144.47;100.00;61586.06;6182757;23;20025;-77
2022/04/24 03:39:13;;;;;;;1.30;1.30;;;;;;;-144.47;100.00;61586.06;6182912;23;20442;-78
2022/04/24 03:41:39;;;;;;;2.20;1.15;;;;;;;-144.47;100.00;61586.06;6181718;23;20370;-78
2022/04/24 03:44:05;;;;;;;2.05;1.20;;;;;;;-144.47;100.00;61586.06;6181769;23;20100;-78
2022/04/24 03:46:31;;;;;;;1.17;1.08;;;;;;;-144.47;100.00;61586.06;6182606;23;20013;-78
2022/04/24 03:48:56;;;;;;;1.85;1.10;;;;;;;-144.47;100.00;61586.06;6182368;23;20005;-77
2022/04/24 03:51:22;;;;;;;1.60;1.05;;;;;;;-144.47;100.00;61586.06;6181861;23;20036;-77
2022/04/24 03:53:47;;;;;;;1.40;1.10;;;;;;;-144.47;100.00;61586.06;6182539;23;20013;-77
2022/04/24 03:56:14;;;;;;;1.92;1.20;;;;;;;-144.47;100.00;61586.06;6182558;23;20089;-78
2022/04/24 03:58:39;;;;;;;1.58;1.25;;;;;;;-144.47;100.00;61586.06;6180685;23;20120;-78
2022/04/24 04:01:05;;;;;;;2.33;1.38;;;;;;;-144.47;100.00;61586.06;6181281;23;20005;-78
2022/04/24 04:03:30;;;;;;;1.40;1.30;;;;;;;-144.47;100.00;61586.06;6180797;23;20020;-77
2022/04/24 04:05:55;;;;;;;2.20;1.52;;;;;;;-144.47;100.00;61586.06;6181211;23;20013;-77
2022/04/24 04:08:21;;;;;;;3.05;1.65;;;;;;;-144.47;100.00;61586.06;6181460;23;20117;-78
2022/04/24 04:10:46;;;;;;;1.45;1.35;;;;;;;-144.47;100.00;61586.06;6181547;23;20009;-77
2022/04/24 04:13:13;;;;;;;1.50;1.40;;;;;;;-144.47;100.00;61586.06;6181803;23;20024;-77
2022/04/24 04:15:39;;;;;;;2.72;1.50;;;;;;;-144.47;100.00;61586.06;6180898;23;20112;-78
2022/04/24 04:18:04;;;;;;;2.42;1.40;;;;;;;-144.47;100.00;61586.06;6154961;23;20430;-78
2022/04/24 04:20:30;;;;;;;4.78;1.85;;;;;;;-144.47;100.00;61586.06;6181103;23;20013;-78
2022/04/24 04:22:56;;;;;;;2.50;1.83;;;;;;;-144.47;100.00;61586.06;6180985;23;20327;-78
2022/04/24 04:25:23;;;;;;;1.70;1.48;;;;;;;-144.47;100.00;61586.06;6181259;23;20009;-77
2022/04/24 04:27:49;;;;;;;2.00;1.63;;;;;;;-144.47;100.00;61586.06;6180696;23;20009;-77
2022/04/24 04:30:15;;;;;;;2.03;1.70;;;;;;;-144.47;100.00;61586.06;6181664;23;20063;-76
2022/04/24 04:32:41;;;;;;;2.42;1.75;;;;;;;-144.47;100.00;61586.06;6180715;23;20027;-78
2022/04/24 04:35:09;;;;;;;1.98;1.50;;;;;;;-144.47;100.00;61586.06;6181863;23;20013;-78
2022/04/24 04:37:35;;;;;;;3.30;1.58;;;;;;;-144.47;100.00;61586.06;6197665;23;20063;-78
2022/04/24 04:40:02;;;;;;;3.38;1.50;;;;;;;-144.47;100.00;61586.06;6199300;23;20005;-78
2022/04/24 04:42:29;;;;;;;2.72;1.80;;;;;;;-144.47;100.00;61586.06;6181858;23;20005;-77
2022/04/24 04:44:56;;;;;;;1.70;1.60;;;;;;;-144.47;100.00;61586.06;6181535;23;20036;-77
2022/04/24 04:47:22;;;;;;;2.97;2.30;;;;;;;-144.47;100.00;61586.06;6182147;23;20005;-77
2022/04/24 04:49:47;;;;;;;1.63;1.52;;;;;;;-144.47;100.00;61586.06;6180915;23;20009;-77
2022/04/24 04:52:13;;;;;;;1.80;1.67;;;;;;;-144.47;100.00;61586.06;6181821;23;20025;-77
2022/04/24 04:54:40;;;;;;;3.63;1.83;;;;;;;-144.47;100.00;61586.06;6181880;23;20414;-78
2022/04/24 04:57:06;;;;;;;1.60;1.50;;;;;;;-144.47;100.00;61586.06;6180688;23;20009;-79
2022/04/24 04:59:32;;;;;;;1.50;1.40;;;;;;;-144.47;100.00;61586.06;6180248;23;20016;-78
2022/04/24 05:01:57;;;;;;;1.98;1.80;;;;;;;-144.47;100.00;61586.06;6181554;23;20073;-77
2022/04/24 05:04:22;;;;;;;2.63;1.60;;;;;;;-144.47;100.00;61586.06;6181944;23;20013;-79
2022/04/24 05:06:48;;;;;;;2.17;1.70;;;;;;;-144.47;100.00;61586.06;6181290;23;20318;-78
2022/04/24 05:09:13;;;;;;;1.58;1.48;;;;;;;-144.47;100.00;61586.06;6181940;23;20391;-77
2022/04/24 05:11:39;;;;;;;1.80;1.67;;;;;;;-144.47;100.00;61586.06;6181563;23;20151;-77
2022/04/24 05:14:05;;;;;;;2.50;1.65;;;;;;;-144.47;100.00;61586.06;6181910;23;20457;-77
2022/04/24 05:16:31;;;;;;;3.55;2.15;;;;;;;-144.47;100.00;61586.06;6185515;23;20013;-76
2022/04/24 05:18:58;;;;;;;3.72;1.67;;;;;;;-144.47;100.00;61586.06;6193169;23;20024;-77
2022/04/24 05:21:24;;;;;;;4.38;1.50;;;;;;;-144.47;100.00;61586.06;6180495;23;20345;-77
2022/04/24 05:23:49;;;;;;;1.60;1.50;;;;;;;-144.47;100.00;61586.06;6179788;23;20020;-78
2022/04/24 05:26:15;;;;;;;1.80;1.52;;;;;;;-144.47;100.00;61586.06;6180635;23;20036;-78
2022/04/24 05:28:40;;;;;;;2.20;2.00;;;;;;;-144.47;100.00;61586.06;6179726;23;20008;-78
2022/04/24 05:31:06;;;;;;;3.00;1.65;;;;;;;-144.47;100.00;61586.06;6180261;23;20089;-78
2022/04/24 05:33:32;;;;;;;2.30;2.10;;;;;;;-144.47;100.00;61586.06;6129016;23;20100;-77
2022/04/24 05:35:58;;;;;;;2.15;1.77;;;;;;;-144.47;100.00;61586.06;6180796;23;20016;-77
2022/04/24 05:38:23;;;;;;;2.78;1.80;;;;;;;-144.47;100.00;61586.06;6154068;23;20013;-77
2022/04/24 05:40:49;;;;;;;2.00;1.67;;;;;;;-144.47;100.00;61586.06;6180222;23;20017;-77
2022/04/24 05:43:15;;;;;;;3.58;1.83;;;;;;;-144.47;100.00;61586.06;6179776;23;20013;-77
2022/04/24 05:45:40;;;;;;;2.33;1.77;;;;;;;-144.47;100.00;61586.06;6180365;23;20099;-77
2022/04/24 05:48:06;;;;;;;2.15;1.83;;;;;;;-144.47;100.00;61586.06;6182917;23;20384;-77
2022/04/24 05:50:33;;;;;;;2.17;1.80;;;;;;;-144.47;100.00;61586.06;6181003;23;20017;-77
2022/04/24 05:52:59;;;;;;;2.50;1.92;;;;;;;-144.47;100.00;61586.06;6155886;23;20323;-77
2022/04/24 05:55:25;;;;;;;2.03;1.70;;;;;;;-144.47;100.00;61586.06;6182002;23;20016;-77
2022/04/24 05:57:52;;;;;;;2.03;1.92;;;;;;;-144.47;100.00;61586.06;6181152;23;20013;-76
2022/04/24 06:00:18;;;;;;;1.98;1.88;;;;;;;-144.47;100.00;61586.06;6181249;23;20017;-77
2022/04/24 06:02:44;;;;;;;2.63;2.05;;;;;;;-144.47;100.00;61586.06;6180541;23;20375;-77
2022/04/24 06:05:13;;;;;;;2.15;1.90;;;;;;;-144.47;100.00;61586.06;6181071;23;20013;-77
2022/04/24 06:07:40;;;;;;;1.95;1.75;;;;;;;-144.47;100.00;61586.06;6181016;23;20311;-78
2022/04/24 06:10:06;;;;;;;2.20;2.10;;;;;;;-144.47;100.00;61586.06;6182486;23;20036;-78
2022/04/24 06:12:42;;;;;;;2.20;2.10;;;;;;;-144.47;100.00;61586.06;6180618;23;20024;-78
2022/04/24 06:15:13;;;;;;;4.35;2.63;;;;;;;-144.47;100.00;61586.06;6181015;23;20013;-78
2022/04/24 06:17:39;;;;;;;2.33;2.15;;;;;;;-144.47;100.00;61586.06;6154281;23;20386;-79
2022/04/24 06:20:05;;;;;;;2.85;2.22;;;;;;;-144.47;100.00;61586.06;6181582;23;20079;-78
2022/04/24 06:22:43;;;;;;;2.20;2.00;;;;;;;-144.47;100.00;61586.06;6180591;23;20084;-78
2022/04/24 06:25:09;;;;;;;2.47;2.20;;;;;;;-144.47;100.00;61586.06;6181928;23;20072;-79
2022/04/24 06:27:35;;;;;;;3.63;2.22;;;;;;;-144.47;100.00;61586.06;6181188;23;20009;-80
2022/04/24 06:30:01;;;;;;;2.05;1.80;;;;;;;-144.47;100.00;61586.06;6181605;23;20013;-80
2022/04/24 06:32:30;;;;;;;3.90;2.63;;;;;;;-144.47;100.00;61586.06;6181631;23;20012;-80
2022/04/24 06:34:55;;;;;;;4.97;3.08;;;;;;;-144.47;100.00;61586.06;6182725;23;20075;-80
2022/04/24 06:37:21;;;;;;;3.80;2.80;;;;;;;-144.47;100.00;61586.06;6183789;23;20418;-80
2022/04/24 06:39:46;;;;;;;3.70;2.75;;;;;;;-144.47;100.00;61586.06;6184226;23;20112;-80
2022/04/24 06:42:12;;;;;;;4.10;2.65;;;;;;;-144.47;100.00;61586.06;6194769;23;20057;-80
2022/04/24 06:44:37;;;;;;;3.45;2.78;;;;;;;-144.47;100.00;61586.06;6171186;23;20050;-80
2022/04/24 06:47:03;;;;;;;3.17;2.97;;;;;;;-144.47;100.00;61586.06;6188363;23;20009;-79
2022/04/24 06:49:29;;;;;;;3.28;2.50;;;;;;;-144.47;100.00;61586.06;6182895;23;20486;-79
2022/04/24 06:51:54;;;;;;;6.45;2.90;;;;;;;-144.47;100.00;61586.06;6156545;23;20036;-81
2022/04/24 06:54:20;;;;;;;3.47;2.97;;;;;;;-144.47;100.00;61586.06;6183140;23;20041;-78
2022/04/24 06:56:45;;;;;;;6.22;3.38;;;;;;;-144.47;100.00;61586.06;6155800;23;20119;-78
2022/04/24 06:59:10;;;;;;;6.20;2.55;;;;;;;-144.47;100.00;61586.06;6182793;23;20536;-78
2022/04/24 07:01:36;;;;;;;3.85;2.97;;;;;;;-144.47;100.00;61586.06;6182513;23;20013;-78
2022/04/24 07:04:01;;;;;;;3.13;2.20;;;;;;;-144.47;100.00;61586.06;6181344;23;20075;-78
2022/04/24 07:06:27;;;;;;;2.28;2.08;;;;;;;-144.47;100.00;61586.06;6181454;23;20442;-78
2022/04/24 07:08:52;;;;;;;6.88;2.85;;;;;;;-144.47;100.00;61586.06;6181695;23;20178;-78
2022/04/24 07:11:18;;;;;;;3.20;2.88;;;;;;;-144.47;100.00;61586.06;6155076;23;20013;-79
2022/04/24 07:13:44;;;;;;;2.95;2.70;;;;;;;-144.47;100.00;61586.06;6154759;23;20024;-78
2022/04/24 07:16:10;;;;;;;5.45;2.70;;;;;;;-144.47;100.00;61586.06;6181543;23;20012;-80
2022/04/24 07:18:35;;;;;;;3.58;2.35;;;;;;;-144.47;100.00;61586.06;6180773;23;20013;-79
2022/04/24 07:21:02;;;;;;;3.30;2.33;;;;;;;-144.47;100.00;61586.06;6180226;23;20346;-80
2022/04/24 07:23:28;;;;;;;3.13;2.50;;;;;;;-144.47;100.00;61586.06;6178673;23;20438;-78
2022/04/24 07:25:54;;;;;;;2.85;2.13;;;;;;;-144.47;100.00;61586.06;6178596;23;20020;-81
2022/04/24 07:28:19;;;;;;;3.35;1.80;;;;;;;-144.47;100.00;61586.06;6182250;23;20017;-81
2022/04/24 07:30:46;;;;;;;2.20;2.00;;;;;;;-144.47;100.00;61586.06;6199751;23;20013;-81
2022/04/24 07:33:12;;;;;;;6.68;1.70;;;;;;;-144.47;100.00;61586.06;6194097;23;20433;-81
2022/04/24 07:35:39;;;;;;;4.43;2.20;;;;;;;-144.47;100.00;61586.06;6155458;23;20017;-82
2022/04/24 07:38:05;;;;;;;2.35;2.15;;;;;;;-144.47;100.00;61586.06;6181000;23;20009;-80
2022/04/24 07:40:33;;;;;;;4.05;1.80;;;;;;;-144.47;100.00;61586.06;6181877;23;20012;-80
2022/04/24 07:43:00;;;;;;;4.22;2.10;;;;;;;-144.47;100.00;61586.06;6181999;23;20004;-80
2022/04/24 07:45:31;;;;;;;2.10;1.73;;;;;;;-144.47;100.00;61586.06;6180435;23;20111;-81
2022/04/24 07:47:58;;;;;;;3.42;2.40;;;;;;;-144.47;100.00;61586.06;6182212;23;20515;-81
2022/04/24 07:50:27;;;;;;;3.45;2.08;;;;;;;-144.47;100.00;61586.06;6181022;23;20005;-80
2022/04/24 07:52:53;;;;;;;3.03;2.30;;;;;;;-144.47;100.00;61586.06;6180594;23;20013;-79
2022/04/24 07:55:22;;;;;;;3.53;2.00;;;;;;;-144.47;100.00;61586.06;6179393;23;20222;-82
2022/04/24 07:57:49;;;;;;;5.20;2.20;;;;;;;-144.47;100.00;61586.06;6178911;23;20017;-81
2022/04/24 08:00:17;;;;;;;4.45;2.35;;;;;;;-144.47;100.00;61586.06;6179701;23;20017;-80
2022/04/24 08:02:50;;;;;;;2.70;2.15;;;;;;;-144.47;100.00;61586.06;6153061;23;20414;-80
2022/04/24 08:05:23;;;;;;;6.20;2.50;;;;;;;-144.47;100.00;61586.06;6179554;23;20047;-77
2022/04/24 08:07:48;;;;;;;2.88;2.00;;;;;;;-144.47;100.00;61586.06;6152682;23;20023;-79
2022/04/24 08:10:15;;;;;;;2.35;2.15;;;;;;;-144.47;100.00;61586.06;6181406;23;20024;-77
2022/04/24 08:12:40;;;;;;;3.78;1.90;;;;;;;-144.47;100.00;61586.06;6189155;23;20028;-80
2022/04/24 08:15:06;;;;;;;3.45;2.17;;;;;;;-144.47;100.00;61586.06;6193771;23;20040;-80
2022/04/24 08:17:32;;;;;;;2.38;1.77;;;;;;;-144.47;100.00;61586.06;6179018;23;20017;-79
2022/04/24 08:19:57;;;;;;;6.57;1.92;;;;;;;-144.47;100.00;61586.06;6179134;23;20330;-78
2022/04/24 08:22:22;;;;;;;3.22;2.03;;;;;;;-144.47;100.00;61586.06;6179185;23;20037;-80
2022/04/24 08:24:48;;;;;;;2.17;1.83;;;;;;;-144.47;100.00;61586.06;6178804;23;20108;-79
2022/04/24 08:27:13;;;;;;;3.00;1.90;;;;;;;-144.47;100.00;61586.06;6179454;23;20040;-79
2022/04/24 08:29:39;;;;;;;4.50;2.05;;;;;;;-144.47;100.00;61586.06;6152077;23;20088;-79
2022/04/24 08:32:04;;;;;;;2.15;1.92;;;;;;;-144.47;100.00;61586.06;6179173;23;20500;-78
2022/04/24 08:34:30;;;;;;;4.45;2.20;;;;;;;-144.47;100.00;61586.06;6178748;23;20449;-77
2022/04/24 08:36:55;;;;;;;5.20;2.22;;;;;;;-144.47;100.00;61586.06;6179244;23;20004;-79
2022/04/24 08:39:21;;;;;;;3.67;2.00;;;;;;;-144.47;100.00;61586.06;6179777;23;20040;-79
2022/04/24 08:41:46;;;;;;;3.38;2.10;;;;;;;-144.47;100.00;61586.06;6177662;23;20413;-78
2022/04/24 08:44:12;;;;;;;3.88;1.95;;;;;;;-144.47;100.00;61586.06;6177428;23;20017;-80
2022/04/24 08:46:38;;;;;;;6.32;2.20;;;;;;;-144.47;100.00;61586.06;6178150;23;20067;-80
2022/04/24 08:49:05;;;;;;;2.85;1.95;;;;;;;-144.47;100.00;61586.06;6178509;23;20024;-81
2022/04/24 08:51:32;;;;;;;5.82;2.00;;;;;;;-144.47;100.00;61586.06;6178764;23;20013;-80
2022/04/24 08:53:58;;;;;;;2.03;1.83;;;;;;;-144.47;100.00;61586.06;6178969;23;20016;-79
2022/04/24 08:56:24;;;;;;;2.50;1.58;;;;;;;-144.47;100.00;61586.06;6178702;23;20017;-79
2022/04/24 08:58:51;;;;;;;2.15;1.80;;;;;;;-144.47;100.00;61586.06;6148617;23;20025;-80
2022/04/24 09:01:16;;;;;;;5.43;2.20;;;;;;;-144.47;100.00;61586.06;6175084;23;20554;-80
2022/04/24 09:03:42;;;;;;;1.65;1.27;;;;;;;-144.47;100.00;61586.06;6176528;23;20095;-82
2022/04/24 09:06:19;;;;;;;1.95;1.65;;;;;;;-144.47;100.00;61586.06;6178490;23;20017;-81
2022/04/24 09:08:45;;;;;;;2.15;1.52;;;;;;;-144.47;100.00;61586.06;6178757;23;20104;-81
2022/04/24 09:11:11;;;;;;;2.53;1.27;;;;;;;-144.47;100.00;61586.06;6179842;23;20403;-79
2022/04/24 09:16:37;;;;;;;2.65;1.55;;;;;;;-144.47;100.00;61586.06;6179038;23;20443;-79
2022/04/24 09:19:03;;;;;;;1.90;1.35;;;;;;;-144.47;100.00;61586.06;6178609;23;20028;-83
2022/04/24 09:21:29;;;;;;;2.67;1.42;;;;;;;-144.47;100.00;61586.06;6181720;23;20009;-79
2022/04/24 09:24:00;;;;;;;2.90;1.20;;;;;;;-144.47;100.00;61586.06;6176961;23;20504;-77
2022/04/24 09:26:25;;;;;;;2.88;1.55;;;;;;;-144.47;100.00;61586.06;6177669;23;20049;-79
2022/04/24 09:28:51;;;;;;;3.20;1.10;;;;;;;-144.47;100.00;61586.06;6177202;23;20040;-79
2022/04/24 09:31:16;;;;;;;2.95;1.42;;;;;;;-144.47;100.00;61586.06;6177224;23;20005;-77
2022/04/24 09:33:43;;;;;;;4.50;1.52;;;;;;;-144.47;100.00;61586.06;6176733;23;20466;-78
2022/04/24 09:36:09;;;;;;;2.13;1.25;;;;;;;-144.47;100.00;61586.06;6177250;23;20013;-76
2022/04/24 09:38:53;;;;;;;2.67;1.48;;;;;;;-144.47;100.00;61586.06;6177109;23;20017;-80
2022/04/24 09:41:21;;;;;;;3.65;1.30;;;;;;;-144.47;100.00;61586.06;6180998;23;20036;-78
2022/04/24 09:43:47;;;;;;;2.30;1.50;;;;;;;-144.47;100.00;61586.06;6180612;23;20013;-79
2022/04/24 09:46:13;;;;;;;5.07;2.08;;;;;;;-144.47;100.00;61586.06;6190325;23;20009;-76
2022/04/24 09:48:39;;;;;;;2.28;1.10;;;;;;;-144.47;100.00;61586.06;6180869;23;20016;-77
2022/04/24 09:51:04;;;;;;;1.50;1.10;;;;;;;-144.47;100.00;61586.06;6180831;23;20020;-76
2022/04/24 09:53:31;;;;;;;1.95;1.23;;;;;;;-144.47;100.00;61586.06;6179564;23;20013;-78
2022/04/24 09:55:59;;;;;;;1.65;1.08;;;;;;;-144.47;100.00;61586.06;6180002;23;20009;-77
2022/04/24 09:58:25;;;;;;;1.85;1.30;;;;;;;-144.47;100.00;61586.06;6179617;23;20025;-78
2022/04/24 10:00:51;;;;;;;1.95;1.40;;;;;;;-144.47;100.00;61586.06;6180792;23;20337;-78
2022/04/24 10:03:19;;;;;;;2.97;1.20;;;;;;;-144.47;100.00;61586.06;6159069;23;20453;-77
2022/04/24 10:05:47;;;;;;;3.13;1.25;;;;;;;-144.47;100.00;61586.06;6153480;23;20052;-76
2022/04/24 10:08:14;;;;;;;1.25;0.90;;;;;;;-144.47;100.00;61586.06;6180016;23;20013;-77
2022/04/24 10:10:40;;;;;;;3.72;1.10;;;;;;;-144.47;100.00;61586.06;6180949;23;20013;-79
2022/04/24 10:13:11;;;;;;;2.15;1.20;;;;;;;-144.47;100.00;61586.06;6181872;23;20130;-77
2022/04/24 10:15:45;;;;;;;2.90;1.17;;;;;;;-144.47;100.00;61586.06;6181781;23;20442;-80
2022/04/24 10:18:33;;;;;;;1.33;0.80;;;;;;;-144.47;100.00;61586.06;6181464;23;20020;-79
2022/04/24 10:21:43;;;;;;;1.77;1.27;;;;;;;-144.47;100.00;61586.06;6178420;23;20009;-79
2022/04/24 10:24:11;;;;;;;2.65;1.40;;;;;;;-144.47;100.00;61586.06;6138228;23;20021;-80
2022/04/24 10:26:37;;;;;;;4.75;1.17;;;;;;;-144.47;100.00;61586.06;6179394;23;20071;-78
2022/04/24 10:29:09;;;;;;;1.40;1.15;;;;;;;-144.47;100.00;61586.06;6180119;23;20603;-79
2022/04/24 10:31:46;;;;;;;1.95;1.05;;;;;;;-144.47;100.00;61586.06;6152408;23;20012;-78
2022/04/24 10:34:20;;;;;;;2.10;0.93;;;;;;;-144.47;100.00;61586.06;6152144;23;20357;-79
2022/04/24 10:36:54;;;;;;;1.38;0.82;;;;;;;-144.47;100.00;61586.06;6152787;23;20092;-79
2022/04/24 10:39:22;;;;;;;2.17;1.20;;;;;;;-144.47;100.00;61586.06;6180950;23;20048;-78
2022/04/24 10:41:56;;;;;;;1.98;1.00;;;;;;;-144.47;100.00;61586.06;6185086;23;20075;-78
2022/04/24 10:44:22;;;;;;;2.20;1.20;;;;;;;-144.47;100.00;61586.06;6183090;23;20017;-77
2022/04/24 10:46:48;;;;;;;1.17;0.90;;;;;;;-144.47;100.00;61586.06;6179242;23;20083;-77
2022/04/24 10:49:16;;;;;;;1.42;0.98;;;;;;;-144.47;100.00;61586.06;6179482;23;20118;-79
2022/04/24 10:51:44;;;;;;;3.92;0.80;;;;;;;-144.47;100.00;61586.06;6178726;23;20465;-79
2022/04/24 10:54:14;;;;;;;3.05;1.50;;;;;;;-144.47;100.00;61586.06;6180007;23;20308;-80
2022/04/24 10:56:42;;;;;;;2.92;1.25;;;;;;;-144.47;100.00;61586.06;6179095;23;20386;-77
2022/04/24 10:59:16;;;;;;;2.40;1.27;;;;;;;-144.47;100.00;61586.06;6179430;23;20418;-77
2022/04/24 11:01:52;;;;;;;2.05;1.10;;;;;;;-144.47;100.00;61586.06;6179836;23;20037;-80
2022/04/24 11:04:20;;;;;;;2.03;1.05;;;;;;;-144.47;100.00;61586.06;6179635;23;20009;-76
2022/04/24 11:06:59;;;;;;;3.50;1.13;;;;;;;-144.47;100.00;61586.06;6179052;23;20476;-77
2022/04/24 11:09:36;;;;;;;1.05;0.75;;;;;;;-144.47;100.00;61586.06;6179659;23;20012;-78
2022/04/24 11:12:07;;;;;;;1.67;1.20;;;;;;;-144.47;100.00;61586.06;6179707;23;20037;-77